Latest Weather Observations for Williamtown

IDN60901

Issued at 7:21 am EDT Monday 18 November 2019 (issued every 10 minutes, with the page automatically refreshed every 10 minutes)

About weather observations | Map of Sydney area stations | Latest observations for Sydney area | Other Formats
Station Details ID: 061078 Name: WILLIAMTOWN RAAF Lat: -32.79 Lon: 151.84 Height: 7.5 m
Data from the previous 72 hours. | See also: Recent months at Williamtown
Date/Time
EDT
Temp
°C
App
Temp
°C
Dew
Point
°C
Rel
Hum
%
Delta-T
°C
Wind Press
QNH
hPa
Press
MSL
hPa
Rain since
9am
mm
Dir  Spd
km/h
Gust
km/h
Spd
kts
Gust
kts
18/07:00am 15.8 16.9 13.6 87 1.2 CALM 0 7 0 4 1019.1 1019.0 0.0
18/06:30am 13.7 14.3 11.9 89 1.0 CALM 0 0 0 0 1019.1 1019.0 0.0
18/06:00am 12.9 12.1 11.1 89 0.9 N 6 7 3 4 1018.9 1018.8 0.0
18/05:30am 13.2 13.8 11.8 91 0.7 CALM 0 0 0 0 1018.7 1018.6 0.0
18/05:00am 13.4 14.0 11.8 90 0.9 CALM 0 0 0 0 1018.6 1018.5 0.0
18/04:30am 14.0 14.6 11.9 87 1.1 CALM 0 4 0 2 1018.4 1018.3 0.0
18/04:00am 14.6 15.3 12.1 85 1.4 CALM 0 0 0 0 1018.3 1018.2 0.0
18/03:30am 15.8 16.7 12.9 83 1.6 CALM 0 0 0 0 1018.5 1018.4 0.0
18/03:00am 15.8 16.7 12.9 83 1.6 CALM 0 0 0 0 1018.8 1018.7 0.0
18/02:30am 15.6 16.4 12.7 83 1.6 CALM 0 0 0 0 1018.8 1018.7 0.0
18/02:00am 15.6 16.4 12.5 82 1.7 CALM 0 0 0 0 1019.2 1019.1 0.0
18/01:30am 17.7 16.8 12.6 72 2.8 ESE 9 11 5 6 1019.5 1019.4 0.0
18/01:00am 17.9 17.1 12.8 72 2.8 ESE 9 11 5 6 1019.7 1019.6 0.0
18/12:30am 18.3 17.2 13.0 71 3.0 E 11 15 6 8 1019.8 1019.7 0.0
18/12:00am 18.5 17.4 13.1 71 3.0 ESE 11 13 6 7 1020.2 1020.1 0.0
 
Date/Time
EDT
Temp
°C
App
Temp
°C
Dew
Point
°C
Rel
Hum
%
Delta-T
°C
Wind Press
QNH
hPa
Press
MSL
hPa
Rain since
9am
mm
Dir  Spd
km/h
Gust
km/h
Spd
kts
Gust
kts
17/11:30pm 18.4 17.7 13.3 72 2.9 ESE 9 13 5 7 1020.2 1020.1 0.0
17/11:00pm 18.4 16.3 13.5 73 2.8 SE 17 24 9 13 1020.3 1020.2 0.0
17/10:30pm 18.6 16.4 13.2 71 3.1 SE 17 24 9 13 1020.1 1020.0 0.0
17/10:00pm 18.8 16.3 13.4 71 3.1 SE 19 26 10 14 1020.0 1019.9 0.0
17/09:30pm 18.6 15.9 13.0 70 3.2 SE 19 24 10 13 1020.0 1019.9 0.0
17/09:00pm 19.0 16.3 13.4 70 3.2 SE 20 28 11 15 1019.5 1019.4 0.0
17/08:30pm 19.1 15.3 13.5 70 3.2 SE 26 33 14 18 1018.9 1018.8 0.0
17/08:00pm 19.3 15.9 13.7 70 3.2 SE 24 30 13 16 1018.6 1018.5 0.0
17/07:30pm 19.5 16.5 13.7 69 3.3 SE 22 30 12 16 1018.1 1018.0 0.0
17/07:00pm 19.5 15.0 13.7 69 3.3 SE 30 37 16 20 1017.6 1017.5 0.0
17/06:30pm 20.0 15.2 13.9 68 3.5 SE 32 37 17 20 1016.8 1016.7 0.0
17/06:00pm 20.2 14.9 14.3 69 3.4 SE 35 44 19 24 1016.3 1016.2 0.0
17/05:30pm 20.6 15.5 14.9 70 3.3 SE 35 46 19 25 1015.2 1015.1 0.0
17/05:00pm 21.2 18.4 15.3 69 3.5 SE 24 30 13 16 1014.8 1014.7 0.0
17/04:30pm 20.6 17.5 14.5 68 3.6 ESE 24 32 13 17 1014.9 1014.8 0.0
17/04:00pm 21.6 18.5 14.5 64 4.2 SE 24 33 13 18 1014.9 1014.8 0.0
17/03:30pm 21.5 17.6 14.4 64 4.2 ESE 28 37 15 20 1014.7 1014.6 0.0
17/03:00pm 23.0 17.7 14.3 58 5.1 SSE 35 46 19 25 1014.1 1014.0 0.0
17/02:30pm 22.4 17.4 13.5 57 5.1 SSE 32 41 17 22 1014.1 1014.0 0.0
17/02:00pm 23.1 19.0 14.9 60 4.9 SSE 30 35 16 19 1014.2 1014.1 0.0
17/01:30pm 22.6 18.7 14.4 60 4.8 SSE 28 37 15 20 1014.1 1014.0 0.0
17/01:00pm 23.0 20.3 15.6 63 4.4 SE 24 33 13 18 1014.0 1013.9 0.0
17/12:30pm 22.8 21.0 16.1 66 4.1 SE 20 32 11 17 1013.9 1013.8 0.0
17/12:00pm 22.5 19.0 15.4 64 4.2 S 28 39 15 21 1013.9 1013.8 0.0
17/11:30am 23.2 19.3 15.5 62 4.6 S 30 35 16 19 1013.9 1013.8 0.0
17/11:00am 22.8 20.5 15.6 64 4.3 SW 22 32 12 17 1013.9 1013.8 0.0
17/10:30am 21.3 19.6 15.8 71 3.3 SSW 19 28 10 15 1014.0 1013.9 0.0
17/10:00am 20.8 20.3 14.9 69 3.5 WSW 11 15 6 8 1013.9 1013.8 0.0
17/09:30am 21.5 19.9 14.9 66 3.9 W 17 22 9 12 1013.9 1013.8 0.0
17/09:00am 20.0 18.2 14.4 70 3.3 WNW 17 26 9 14 1013.8 1013.7 0.0
17/08:30am 18.9 16.7 14.4 75 2.6 NW 19 24 10 13 1013.7 1013.6 0.0
17/08:00am 18.3 16.4 14.2 77 2.4 WNW 17 22 9 12 1014.0 1013.9 0.0
17/07:30am 17.3 16.6 14.2 82 1.8 WNW 11 13 6 7 1014.0 1013.9 0.0
17/07:00am 16.5 16.1 14.2 86 1.3 WNW 9 11 5 6 1013.7 1013.6 0.0
17/06:30am 16.2 16.4 14.2 88 1.1 NW 6 7 3 4 1013.6 1013.5 0.0
17/06:00am 16.6 16.8 14.6 88 1.1 NNW 7 9 4 5 1013.5 1013.4 0.0
17/05:30am 17.0 18.4 14.3 84 1.5 CALM 0 7 0 4 1013.4 1013.3 0.0
17/05:00am 17.7 18.0 15.0 84 1.6 NNW 7 9 4 5 1013.3 1013.2 0.0
17/04:30am 18.3 18.5 14.8 80 2.0 NNW 7 9 4 5 1013.3 1013.2 0.0
17/04:00am 19.0 19.0 15.3 79 2.2 NNE 9 13 5 7 1012.9 1012.8 0.0
17/03:30am 19.2 18.2 15.7 80 2.1 NE 15 19 8 10 1012.8 1012.7 0.0
17/03:00am 19.2 17.7 15.3 78 2.3 ENE 17 24 9 13 1013.2 1013.1 0.0
17/02:30am 19.2 18.3 14.9 76 2.5 ENE 13 17 7 9 1014.0 1013.9 0.0
17/02:00am 19.0 17.7 14.7 76 2.5 ENE 15 19 8 10 1014.4 1014.3 0.0
17/01:30am 18.9 18.3 14.6 76 2.5 ENE 11 17 6 9 1014.9 1014.8 0.0
17/01:00am 18.9 18.3 14.6 76 2.5 ENE 11 15 6 8 1015.1 1015.0 0.0
17/12:30am 18.8 17.7 14.3 75 2.6 ENE 13 19 7 10 1015.3 1015.2 0.0
17/12:00am 18.7 18.0 14.2 75 2.6 E 11 13 6 7 1015.6 1015.5 0.0
 
Date/Time
EDT
Temp
°C
App
Temp
°C
Dew
Point
°C
Rel
Hum
%
Delta-T
°C
Wind Press
QNH
hPa
Press
MSL
hPa
Rain since
9am
mm
Dir  Spd
km/h
Gust
km/h
Spd
kts
Gust
kts
16/11:30pm 18.9 18.2 14.2 74 2.7 E 11 15 6 8 1015.8 1015.7 0.0
16/11:00pm 18.8 17.7 14.3 75 2.6 ENE 13 15 7 8 1015.7 1015.6 0.0
16/10:30pm 18.9 18.6 14.4 75 2.6 E 9 13 5 7 1016.0 1015.9 0.0
16/10:00pm 18.9 17.4 14.2 74 2.7 ENE 15 20 8 11 1015.6 1015.5 0.0
16/09:30pm 18.9 17.2 13.7 72 3.0 ENE 15 19 8 10 1015.5 1015.4 0.0
16/09:00pm 19.1 17.4 13.7 71 3.1 ENE 15 19 8 10 1015.4 1015.3 0.0
16/08:30pm 19.4 17.7 13.6 69 3.3 ENE 15 24 8 13 1015.2 1015.1 0.0
16/08:00pm 19.7 17.9 13.4 67 3.6 ENE 15 20 8 11 1015.0 1014.9 0.0
16/07:30pm 19.9 17.1 13.1 65 3.9 ENE 20 30 11 16 1014.5 1014.4 0.0
16/07:00pm 20.4 17.7 13.4 64 4.0 ENE 20 30 11 16 1014.3 1014.2 0.0
16/06:30pm 20.5 17.4 13.5 64 4.0 E 22 32 12 17 1014.0 1013.9 0.0
16/06:00pm 20.5 16.6 13.2 63 4.2 ENE 26 39 14 21 1013.8 1013.7 0.0
16/05:30pm 21.4 17.1 13.3 60 4.6 ESE 28 35 15 19 1013.7 1013.6 0.0
16/05:00pm 21.4 17.6 13.6 61 4.5 ESE 26 33 14 18 1013.6 1013.5 0.0
16/04:30pm 22.1 17.8 13.2 57 5.1 ESE 28 37 15 20 1013.6 1013.5 0.0
16/04:00pm 21.5 17.0 12.6 57 5.0 SE 28 35 15 19 1013.6 1013.5 0.0
16/03:30pm 21.8 17.5 13.2 58 4.9 SE 28 37 15 20 1013.7 1013.6 0.0
16/03:00pm 23.0 18.7 13.2 54 5.7 SE 28 35 15 19 1013.7 1013.6 0.0
16/02:30pm 23.1 19.2 12.1 50 6.2 ESE 24 33 13 18 1014.3 1014.2 0.0
16/02:00pm 22.8 18.9 12.1 51 6.0 ESE 24 32 13 17 1014.7 1014.6 0.0
16/01:30pm 22.9 20.0 12.8 53 5.8 ESE 20 30 11 16 1014.9 1014.8 0.0
16/01:00pm 23.6 20.5 12.3 49 6.4 SE 20 30 11 16 1015.3 1015.2 0.0
16/12:30pm 23.4 20.0 11.1 46 6.9 SSE 20 33 11 18 1015.5 1015.4 0.0
16/12:00pm 22.6 18.8 9.0 42 7.3 SSE 19 30 10 16 1015.7 1015.6 0.0
16/11:30am 23.0 20.5 11.1 47 6.6 SSE 15 26 8 14 1016.0 1015.9 0.0
16/11:00am 21.9 18.8 11.6 52 5.7 SE 19 26 10 14 1016.2 1016.1 0.0
16/10:30am 21.5 18.5 12.6 57 5.0 SE 20 32 11 17 1016.3 1016.2 0.0
16/10:00am 21.8 18.8 12.4 55 5.3 SE 20 30 11 16 1016.1 1016.0 0.0
16/09:30am 21.5 18.2 12.9 58 4.9 SE 22 30 12 16 1015.9 1015.8 0.0
16/09:00am 21.8 18.5 12.9 57 5.1 SSE 22 30 12 16 1015.8 1015.7 0.0
16/08:30am 21.0 18.0 13.7 63 4.2 S 22 32 12 17 1015.6 1015.5 0.0
16/08:00am 20.9 17.7 14.3 66 3.8 S 24 30 13 16 1015.2 1015.1 0.0
16/07:30am 20.1 17.2 14.0 68 3.5 S 22 30 12 16 1014.9 1014.8 0.0
16/07:00am 19.8 17.9 14.2 70 3.2 S 17 26 9 14 1014.6 1014.5 0.0
16/06:30am 19.0 16.9 14.7 76 2.5 S 19 26 10 14 1014.1 1014.0 0.0
16/06:00am 18.1 15.8 14.6 80 2.0 SSW 20 26 11 14 1013.5 1013.4 0.0
16/05:30am 18.3 15.2 14.6 79 2.1 SSW 24 32 13 17 1013.0 1012.9 0.0
16/05:00am 18.5 15.9 15.0 80 2.0 SSW 22 30 12 16 1012.6 1012.5 0.0
16/04:30am 18.6 15.9 15.5 82 1.8 SSW 24 33 13 18 1012.4 1012.3 0.0
16/04:00am 18.3 15.4 15.2 82 1.8 SSW 24 33 13 18 1012.2 1012.1 0.0
16/03:46am 18.3 15.1 15.2 82 1.8 SSW 26 35 14 19 1012.1 1012.0 0.0
16/03:30am 18.6 15.9 15.5 82 1.8 SSW 24 33 13 18 1012.0 1011.9 0.0
16/03:00am 18.9 16.6 15.8 82 1.8 SSW 22 32 12 17 1011.6 1011.5 0.0
16/02:30am 19.1 16.4 16.5 85 1.6 S 26 35 14 19 1011.4 1011.3 0.0
16/02:14am 18.9 17.3 16.5 86 1.4 S 20 32 11 17 1011.4 1011.3 0.0
16/02:00am 18.8 17.3 16.4 86 1.4 S 19 26 10 14 1011.2 1011.1 0.0
16/01:30am 19.2 17.4 15.9 81 2.0 S 20 30 11 16 1011.2 1011.1 0.0
16/01:00am 20.0 17.1 15.0 73 2.9 S 24 33 13 18 1010.9 1010.8 0.0
16/12:30am 19.4 16.3 1.4 30 8.1 W 7 9 4 5 1010.1 1010.0 0.0
16/12:00am 20.0 16.1 1.0 28 8.6 WNW 11 13 6 7 1009.8 1009.7 0.0
 
Date/Time
EDT
Temp
°C
App
Temp
°C
Dew
Point
°C
Rel
Hum
%
Delta-T
°C
Wind Press
QNH
hPa
Press
MSL
hPa
Rain since
9am
mm
Dir  Spd
km/h
Gust
km/h
Spd
kts
Gust
kts
15/11:30pm 21.3 16.5 0.5 25 9.4 WNW 15 15 8 8 1009.5 1009.4 0.0
15/11:00pm 19.7 15.7 3.0 33 7.8 NW 13 15 7 8 1009.3 1009.2 0.0
15/10:30pm 20.6 16.4 1.5 28 8.7 NW 13 13 7 7 1009.2 1009.1 0.0
15/10:00pm 21.8 18.3 1.5 26 9.4 NW 9 11 5 6 1009.1 1009.0 0.0
15/09:30pm 23.8 19.7 -0.5 20 11.0 WNW 11 17 6 9 1008.8 1008.7 0.0
15/09:00pm 24.5 20.1 -2.1 17 11.7 WSW 11 13 6 7 1008.2 1008.2 0.0
15/08:30pm 27.2 21.7 -5.8 11 13.9 NW 15 19 8 10 1007.6 1007.6 0.0
15/08:00pm 29.0 22.4 -7.0 9 15.1 NW 20 26 11 14 1007.1 1007.1 0.0
15/07:30pm 30.3 23.0 -6.1 9 15.7 NW 24 32 13 17 1006.6 1006.6 0.0
15/07:00pm 31.5 23.6 -5.2 9 16.2 NW 28 35 15 19 1006.1 1006.1 0.0
15/06:30pm 32.7 24.3 -5.8 8 17.0 NW 30 41 16 22 1005.6 1005.6 0.0
15/06:00pm 33.0 24.6 -5.6 8 17.2 NW 30 41 16 22 1005.1 1005.1 0.0
15/05:30pm 33.6 24.2 -6.9 7 17.7 NW 35 50 19 27 1004.9 1004.9 0.0
15/05:00pm 33.9 24.7 -4.9 8 17.6 NW 35 50 19 27 1005.0 1005.0 0.0
15/04:48pm 33.6 24.9 -5.2 8 17.4 NW 32 50 17 27 1004.8 1004.8 0.0
15/04:30pm 33.6 24.7 -5.2 8 17.4 NW 33 48 18 26 1005.0 1005.0 0.0
15/04:00pm 33.8 25.5 -5.0 8 17.6 WNW 30 48 16 26 1005.2 1005.2 0.0
15/03:46pm 34.0 25.3 -3.3 9 17.3 NW 33 52 18 28 1005.3 1005.3 0.0
15/03:30pm 33.2 24.1 -3.9 9 17.0 NW 35 50 19 27 1005.4 1005.4 0.0
15/03:11pm 33.6 25.1 -3.6 9 17.1 NW 32 50 17 27 1005.7 1005.7 0.0
15/03:00pm 32.8 23.6 -4.2 9 16.8 NW 35 48 19 26 1005.8 1005.8 0.0
15/02:30pm 32.6 24.0 -2.9 10 16.4 NW 33 56 18 30 1006.3 1006.3 0.0
15/02:00pm 32.6 22.7 -4.3 9 16.7 WNW 39 57 21 31 1007.0 1007.0 0.0
15/01:54pm 32.7 23.1 -4.3 9 16.7 NW 37 57 20 31 1006.9 1006.9 0.0
15/01:30pm 32.6 23.0 -1.7 11 16.2 WNW 39 52 21 28 1007.5 1007.5 0.0
15/01:00pm 31.8 23.2 -2.3 11 15.9 NW 33 52 18 28 1008.0 1008.0 0.0
15/12:40pm 31.4 22.7 -0.3 13 15.2 NW 35 54 19 29 1008.3 1008.3 0.0
15/12:30pm 30.6 21.6 0.1 14 14.6 NW 37 50 20 27 1008.5 1008.4 0.0
15/12:00pm 30.1 20.9 -1.3 13 14.7 WNW 37 54 20 29 1009.2 1009.1 0.0
15/11:30am 29.4 21.3 1.0 16 13.7 WNW 33 54 18 29 1009.9 1009.8 0.0
15/11:00am 29.1 20.7 1.6 17 13.4 NW 35 48 19 26 1010.4 1010.3 0.0
15/10:30am 28.1 19.7 1.6 18 12.8 WNW 35 48 19 26 1010.4 1010.3 0.0
15/10:00am 27.2 19.6 3.0 21 12.0 WNW 32 44 17 24 1010.8 1010.7 0.0
15/09:30am 25.9 21.1 5.5 27 10.4 WNW 20 33 11 18 1011.1 1011.0 0.0
15/09:00am 23.9 19.5 6.7 33 8.9 NW 19 26 10 14 1011.4 1011.3 0.0
15/08:30am 21.8 18.6 6.9 38 7.6 NW 13 17 7 9 1011.6 1011.5 0.0
15/08:00am 19.8 17.4 6.9 43 6.5 NW 9 13 5 7 1011.8 1011.7 0.0
15/07:30am 18.0 15.9 8.3 53 5.0 NW 9 11 5 6 1011.8 1011.7 0.0

Latest Capital City Observations: Canberra | Sydney | Melbourne | Brisbane | Adelaide | Perth | Hobart | Darwin

Other formats

Comma delimited format used in spreadsheet applications
http://www.bom.gov.au/fwo/IDN60901/IDN60901.94776.axf

JavaScript Object Notation format (JSON) in row-major order
http://www.bom.gov.au/fwo/IDN60901/IDN60901.94776.json

Data quality

Most of these data are generated automatically and are frequently updated. Quality checks on data are not normally performed. It is possible for incorrect values to appear. Refer to information at About Latest Weather Observations and please check the disclaimer before using these data.